LELO

Logroño-Agoncillo Airport

Logroño, Spain
TAF LELO 171100Z 1712/1721 28010KT CAVOK PROB40 TEMPO 1719/1721 4000 BR SCT005
Issued Valid From Valid To
Dec-17 @ 11:00 UTC
(an hour ago)
Dec-17 @ 12:00 UTC
(8 minutes ago)
Dec-17 @ 21:00 UTC
(in 9 hours)
Dec-17 @ 12:00 to Dec-17 @ 21:00
TAF LELO 171100Z 1712/1721 28010KT CAVOK
Wind Visibility Clouds Conditions
280° at 10 knots 10,000+ meters
  • No significant clouds
Temporary  (Probability 40%) Dec-17 @ 19:00 to Dec-17 @ 21:00
PROB40 TEMPO 1719/1721 4000 BR SCT005
Visibility Clouds Conditions
4,007 meters
  • Scattered at 500' AGL
  • Mist
TAF LELO 171100Z 1712/1721 28010KT CAVOK PROB40 TEMPO 1719/1721 4000 BR SCT005
Issued Dec-17 @ 11:00 UTC
(an hour ago)
Valid From Dec-17 @ 12:00 UTC
(8 minutes ago)
Valid To Dec-17 @ 21:00 UTC
(in 9 hours)
Dec-17 @ 12:00 - Dec-17 @ 21:00
Wind Visibility
280° at 10 knots 10,000+ meters
Clouds
  • No significant clouds
Conditions
Probability 40% Temporary Dec-17 @ 19:00 - Dec-17 @ 21:00
Clouds
  • Scattered at 500' AGL
Conditions
  • Mist